sensor_id;sensor_type;location;lat;lon;timestamp;P1;durP1;ratioP1;P2;durP2;ratioP2
22995;SDS011;11664;49.774;8.650;2022-07-15T00:01:15;14.25;;;13.55;;
22995;SDS011;11664;49.774;8.650;2022-07-15T00:03:42;14.27;;;13.57;;
22995;SDS011;11664;49.774;8.650;2022-07-15T00:06:07;16.23;;;15.45;;
22995;SDS011;11664;49.774;8.650;2022-07-15T00:08:34;17.90;;;17.05;;
22995;SDS011;11664;49.774;8.650;2022-07-15T00:11:00;14.93;;;14.20;;
22995;SDS011;11664;49.774;8.650;2022-07-15T00:13:26;15.90;;;15.13;;
22995;SDS011;11664;49.774;8.650;2022-07-15T00:15:52;15.23;;;14.52;;
22995;SDS011;11664;49.774;8.650;2022-07-15T00:18:18;12.48;;;11.88;;
22995;SDS011;11664;49.774;8.650;2022-07-15T00:20:44;13.90;;;13.20;;
22995;SDS011;11664;49.774;8.650;2022-07-15T00:23:10;10.18;;;9.68;;
22995;SDS011;11664;49.774;8.650;2022-07-15T00:25:36;8.13;;;7.63;;
22995;SDS011;11664;49.774;8.650;2022-07-15T00:28:05;6.85;;;6.43;;
22995;SDS011;11664;49.774;8.650;2022-07-15T00:30:38;8.57;;;8.18;;
22995;SDS011;11664;49.774;8.650;2022-07-15T00:33:05;4.60;;;4.40;;
22995;SDS011;11664;49.774;8.650;2022-07-15T00:35:32;5.18;;;4.97;;
22995;SDS011;11664;49.774;8.650;2022-07-15T00:37:58;4.35;;;4.15;;
22995;SDS011;11664;49.774;8.650;2022-07-15T00:40:24;5.40;;;3.85;;
22995;SDS011;11664;49.774;8.650;2022-07-15T00:42:50;2.97;;;2.88;;
22995;SDS011;11664;49.774;8.650;2022-07-15T00:45:18;2.67;;;2.58;;
22995;SDS011;11664;49.774;8.650;2022-07-15T00:47:45;3.10;;;2.88;;
22995;SDS011;11664;49.774;8.650;2022-07-15T00:50:12;2.75;;;2.65;;
22995;SDS011;11664;49.774;8.650;2022-07-15T00:52:40;3.38;;;3.28;;
22995;SDS011;11664;49.774;8.650;2022-07-15T00:55:06;3.33;;;3.15;;
22995;SDS011;11664;49.774;8.650;2022-07-15T00:57:34;3.33;;;3.13;;
22995;SDS011;11664;49.774;8.650;2022-07-15T01:00:04;3.10;;;3.00;;
22995;SDS011;11664;49.774;8.650;2022-07-15T01:02:33;3.47;;;3.38;;
22995;SDS011;11664;49.774;8.650;2022-07-15T01:05:00;4.68;;;4.38;;
22995;SDS011;11664;49.774;8.650;2022-07-15T01:07:26;3.90;;;3.72;;
22995;SDS011;11664;49.774;8.650;2022-07-15T01:09:53;4.43;;;4.22;;
22995;SDS011;11664;49.774;8.650;2022-07-15T01:12:19;3.13;;;3.03;;
22995;SDS011;11664;49.774;8.650;2022-07-15T01:14:44;8.32;;;3.03;;
22995;SDS011;11664;49.774;8.650;2022-07-15T01:17:11;2.97;;;2.78;;
22995;SDS011;11664;49.774;8.650;2022-07-15T01:19:37;3.17;;;3.08;;
22995;SDS011;11664;49.774;8.650;2022-07-15T01:22:04;2.58;;;2.47;;
22995;SDS011;11664;49.774;8.650;2022-07-15T01:24:30;3.35;;;3.25;;
22995;SDS011;11664;49.774;8.650;2022-07-15T01:26:56;2.63;;;2.53;;
22995;SDS011;11664;49.774;8.650;2022-07-15T01:29:22;2.75;;;2.65;;
22995;SDS011;11664;49.774;8.650;2022-07-15T01:31:48;2.88;;;2.60;;
22995;SDS011;11664;49.774;8.650;2022-07-15T01:34:14;2.75;;;2.65;;
22995;SDS011;11664;49.774;8.650;2022-07-15T01:36:40;2.75;;;2.65;;
22995;SDS011;11664;49.774;8.650;2022-07-15T01:39:06;3.17;;;2.97;;
22995;SDS011;11664;49.774;8.650;2022-07-15T01:41:32;3.10;;;3.00;;
22995;SDS011;11664;49.774;8.650;2022-07-15T01:43:58;4.93;;;3.17;;
22995;SDS011;11664;49.774;8.650;2022-07-15T01:46:24;3.83;;;3.63;;
22995;SDS011;11664;49.774;8.650;2022-07-15T01:48:50;4.00;;;3.80;;
22995;SDS011;11664;49.774;8.650;2022-07-15T01:51:35;3.22;;;3.05;;
22995;SDS011;11664;49.774;8.650;2022-07-15T01:54:02;5.70;;;5.50;;
22995;SDS011;11664;49.774;8.650;2022-07-15T01:56:28;9.07;;;8.68;;
22995;SDS011;11664;49.774;8.650;2022-07-15T01:58:54;13.60;;;12.95;;
22995;SDS011;11664;49.774;8.650;2022-07-15T02:01:20;13.00;;;12.27;;
22995;SDS011;11664;49.774;8.650;2022-07-15T02:03:46;15.95;;;15.10;;
22995;SDS011;11664;49.774;8.650;2022-07-15T02:06:12;12.75;;;12.18;;
22995;SDS011;11664;49.774;8.650;2022-07-15T02:08:38;23.95;;;22.80;;
22995;SDS011;11664;49.774;8.650;2022-07-15T02:11:04;27.02;;;25.73;;
22995;SDS011;11664;49.774;8.650;2022-07-15T02:13:32;25.77;;;24.52;;
22995;SDS011;11664;49.774;8.650;2022-07-15T02:15:58;12.88;;;12.27;;
22995;SDS011;11664;49.774;8.650;2022-07-15T02:18:24;13.30;;;12.70;;
22995;SDS011;11664;49.774;8.650;2022-07-15T02:20:50;11.35;;;10.82;;
22995;SDS011;11664;49.774;8.650;2022-07-15T02:23:16;13.38;;;12.73;;
22995;SDS011;11664;49.774;8.650;2022-07-15T02:25:42;11.85;;;11.30;;
22995;SDS011;11664;49.774;8.650;2022-07-15T02:28:08;12.15;;;11.57;;
22995;SDS011;11664;49.774;8.650;2022-07-15T02:30:36;14.82;;;14.13;;
22995;SDS011;11664;49.774;8.650;2022-07-15T02:33:02;12.43;;;11.80;;
22995;SDS011;11664;49.774;8.650;2022-07-15T02:35:29;28.23;;;26.83;;
22995;SDS011;11664;49.774;8.650;2022-07-15T02:37:55;14.95;;;14.02;;
22995;SDS011;11664;49.774;8.650;2022-07-15T02:40:21;35.58;;;33.83;;
22995;SDS011;11664;49.774;8.650;2022-07-15T02:42:47;25.92;;;24.67;;
22995;SDS011;11664;49.774;8.650;2022-07-15T02:45:14;13.15;;;12.45;;
22995;SDS011;11664;49.774;8.650;2022-07-15T02:47:40;19.27;;;18.35;;
22995;SDS011;11664;49.774;8.650;2022-07-15T02:50:06;8.20;;;7.80;;
22995;SDS011;11664;49.774;8.650;2022-07-15T02:52:32;7.90;;;7.55;;
22995;SDS011;11664;49.774;8.650;2022-07-15T02:54:59;9.50;;;9.05;;
22995;SDS011;11664;49.774;8.650;2022-07-15T02:57:25;13.55;;;12.90;;
22995;SDS011;11664;49.774;8.650;2022-07-15T02:59:51;16.17;;;15.38;;
22995;SDS011;11664;49.774;8.650;2022-07-15T03:02:17;10.80;;;10.30;;
22995;SDS011;11664;49.774;8.650;2022-07-15T03:04:43;14.50;;;13.82;;
22995;SDS011;11664;49.774;8.650;2022-07-15T03:07:09;15.35;;;14.55;;
22995;SDS011;11664;49.774;8.650;2022-07-15T03:09:36;7.70;;;7.32;;
22995;SDS011;11664;49.774;8.650;2022-07-15T03:12:02;12.40;;;11.82;;
22995;SDS011;11664;49.774;8.650;2022-07-15T03:14:28;8.75;;;8.35;;
22995;SDS011;11664;49.774;8.650;2022-07-15T03:16:54;6.35;;;6.05;;
22995;SDS011;11664;49.774;8.650;2022-07-15T03:19:20;5.18;;;4.97;;
22995;SDS011;11664;49.774;8.650;2022-07-15T03:21:46;5.40;;;5.18;;
22995;SDS011;11664;49.774;8.650;2022-07-15T03:24:16;4.03;;;3.88;;
22995;SDS011;11664;49.774;8.650;2022-07-15T03:26:42;5.57;;;5.32;;
22995;SDS011;11664;49.774;8.650;2022-07-15T03:29:08;19.17;;;18.10;;
22995;SDS011;11664;49.774;8.650;2022-07-15T03:31:35;12.52;;;11.88;;
22995;SDS011;11664;49.774;8.650;2022-07-15T03:34:01;10.25;;;9.75;;
22995;SDS011;11664;49.774;8.650;2022-07-15T03:36:27;17.05;;;16.25;;
22995;SDS011;11664;49.774;8.650;2022-07-15T03:38:53;16.13;;;15.02;;
22995;SDS011;11664;49.774;8.650;2022-07-15T03:41:19;14.43;;;13.70;;
22995;SDS011;11664;49.774;8.650;2022-07-15T03:43:45;12.63;;;12.02;;
22995;SDS011;11664;49.774;8.650;2022-07-15T03:46:11;5.53;;;5.28;;
22995;SDS011;11664;49.774;8.650;2022-07-15T03:48:39;5.78;;;5.50;;
22995;SDS011;11664;49.774;8.650;2022-07-15T03:51:05;8.80;;;8.27;;
22995;SDS011;11664;49.774;8.650;2022-07-15T03:53:31;7.78;;;7.38;;
22995;SDS011;11664;49.774;8.650;2022-07-15T03:55:57;6.45;;;6.15;;
22995;SDS011;11664;49.774;8.650;2022-07-15T03:58:23;5.60;;;5.35;;
22995;SDS011;11664;49.774;8.650;2022-07-15T04:00:49;16.55;;;15.50;;
22995;SDS011;11664;49.774;8.650;2022-07-15T04:03:15;10.35;;;9.88;;
22995;SDS011;11664;49.774;8.650;2022-07-15T04:05:41;7.35;;;6.93;;
22995;SDS011;11664;49.774;8.650;2022-07-15T04:08:07;5.03;;;4.82;;
22995;SDS011;11664;49.774;8.650;2022-07-15T04:10:33;5.03;;;4.82;;
22995;SDS011;11664;49.774;8.650;2022-07-15T04:13:00;5.82;;;5.53;;
22995;SDS011;11664;49.774;8.650;2022-07-15T04:15:26;4.30;;;4.10;;
22995;SDS011;11664;49.774;8.650;2022-07-15T04:17:53;5.68;;;5.40;;
22995;SDS011;11664;49.774;8.650;2022-07-15T04:20:19;6.85;;;6.45;;
22995;SDS011;11664;49.774;8.650;2022-07-15T04:22:45;6.40;;;4.28;;
22995;SDS011;11664;49.774;8.650;2022-07-15T04:25:14;4.97;;;4.78;;
22995;SDS011;11664;49.774;8.650;2022-07-15T04:27:40;5.28;;;5.07;;
22995;SDS011;11664;49.774;8.650;2022-07-15T04:30:07;5.30;;;5.07;;
22995;SDS011;11664;49.774;8.650;2022-07-15T04:32:34;10.70;;;10.18;;
22995;SDS011;11664;49.774;8.650;2022-07-15T04:35:00;12.50;;;11.93;;
22995;SDS011;11664;49.774;8.650;2022-07-15T04:37:26;13.57;;;12.93;;
22995;SDS011;11664;49.774;8.650;2022-07-15T04:39:53;10.93;;;10.43;;
22995;SDS011;11664;49.774;8.650;2022-07-15T04:42:19;9.25;;;8.82;;
22995;SDS011;11664;49.774;8.650;2022-07-15T04:44:46;13.93;;;13.27;;
22995;SDS011;11664;49.774;8.650;2022-07-15T04:47:12;18.63;;;17.73;;
22995;SDS011;11664;49.774;8.650;2022-07-15T04:49:38;14.80;;;14.10;;
22995;SDS011;11664;49.774;8.650;2022-07-15T04:52:23;14.18;;;13.45;;
22995;SDS011;11664;49.774;8.650;2022-07-15T04:54:50;16.60;;;15.82;;
22995;SDS011;11664;49.774;8.650;2022-07-15T04:57:16;19.58;;;18.48;;
22995;SDS011;11664;49.774;8.650;2022-07-15T04:59:42;14.90;;;14.20;;
22995;SDS011;11664;49.774;8.650;2022-07-15T05:02:08;37.17;;;35.33;;
22995;SDS011;11664;49.774;8.650;2022-07-15T05:04:34;30.02;;;28.52;;
22995;SDS011;11664;49.774;8.650;2022-07-15T05:07:00;44.47;;;42.05;;
22995;SDS011;11664;49.774;8.650;2022-07-15T05:09:26;28.67;;;27.27;;
22995;SDS011;11664;49.774;8.650;2022-07-15T05:11:52;12.18;;;11.57;;
22995;SDS011;11664;49.774;8.650;2022-07-15T05:14:18;6.32;;;6.03;;
22995;SDS011;11664;49.774;8.650;2022-07-15T05:16:45;9.32;;;8.93;;
22995;SDS011;11664;49.774;8.650;2022-07-15T05:19:11;14.15;;;13.50;;
22995;SDS011;11664;49.774;8.650;2022-07-15T05:21:37;15.80;;;15.05;;
22995;SDS011;11664;49.774;8.650;2022-07-15T05:24:03;7.55;;;7.18;;
22995;SDS011;11664;49.774;8.650;2022-07-15T05:26:29;12.00;;;11.43;;
22995;SDS011;11664;49.774;8.650;2022-07-15T05:28:55;15.27;;;14.55;;
22995;SDS011;11664;49.774;8.650;2022-07-15T05:31:21;12.07;;;11.50;;
22995;SDS011;11664;49.774;8.650;2022-07-15T05:33:47;8.82;;;8.43;;
22995;SDS011;11664;49.774;8.650;2022-07-15T05:36:14;6.85;;;6.55;;
22995;SDS011;11664;49.774;8.650;2022-07-15T05:38:40;4.65;;;4.40;;
22995;SDS011;11664;49.774;8.650;2022-07-15T05:41:06;5.38;;;5.18;;
22995;SDS011;11664;49.774;8.650;2022-07-15T05:43:33;3.33;;;3.17;;
22995;SDS011;11664;49.774;8.650;2022-07-15T05:45:59;5.60;;;5.32;;
22995;SDS011;11664;49.774;8.650;2022-07-15T05:48:25;3.47;;;3.38;;
22995;SDS011;11664;49.774;8.650;2022-07-15T05:50:51;5.47;;;5.20;;
22995;SDS011;11664;49.774;8.650;2022-07-15T05:53:18;4.25;;;4.05;;
22995;SDS011;11664;49.774;8.650;2022-07-15T05:55:44;3.20;;;3.03;;
22995;SDS011;11664;49.774;8.650;2022-07-15T05:58:10;3.85;;;2.75;;
22995;SDS011;11664;49.774;8.650;2022-07-15T06:00:37;4.20;;;3.95;;
22995;SDS011;11664;49.774;8.650;2022-07-15T06:03:04;4.47;;;4.28;;
22995;SDS011;11664;49.774;8.650;2022-07-15T06:05:30;5.25;;;5.05;;
22995;SDS011;11664;49.774;8.650;2022-07-15T06:07:56;4.07;;;3.85;;
22995;SDS011;11664;49.774;8.650;2022-07-15T06:10:22;3.17;;;3.08;;
22995;SDS011;11664;49.774;8.650;2022-07-15T06:12:48;4.22;;;4.03;;
22995;SDS011;11664;49.774;8.650;2022-07-15T06:15:14;3.30;;;3.20;;
22995;SDS011;11664;49.774;8.650;2022-07-15T06:17:41;2.70;;;2.60;;
22995;SDS011;11664;49.774;8.650;2022-07-15T06:20:07;3.10;;;3.00;;
22995;SDS011;11664;49.774;8.650;2022-07-15T06:22:33;4.00;;;3.70;;
22995;SDS011;11664;49.774;8.650;2022-07-15T06:24:59;2.90;;;2.80;;
22995;SDS011;11664;49.774;8.650;2022-07-15T06:27:25;4.68;;;4.47;;
22995;SDS011;11664;49.774;8.650;2022-07-15T06:29:51;6.00;;;5.70;;
22995;SDS011;11664;49.774;8.650;2022-07-15T06:32:18;4.22;;;4.05;;
22995;SDS011;11664;49.774;8.650;2022-07-15T06:34:44;5.20;;;5.00;;
22995;SDS011;11664;49.774;8.650;2022-07-15T06:37:10;3.17;;;3.08;;
22995;SDS011;11664;49.774;8.650;2022-07-15T06:39:36;4.53;;;4.22;;
22995;SDS011;11664;49.774;8.650;2022-07-15T06:42:02;5.38;;;5.18;;
22995;SDS011;11664;49.774;8.650;2022-07-15T06:44:28;16.05;;;4.93;;
22995;SDS011;11664;49.774;8.650;2022-07-15T06:46:55;4.85;;;4.65;;
22995;SDS011;11664;49.774;8.650;2022-07-15T06:49:21;4.70;;;4.50;;
22995;SDS011;11664;49.774;8.650;2022-07-15T06:51:48;4.43;;;4.20;;
22995;SDS011;11664;49.774;8.650;2022-07-15T06:54:14;3.78;;;3.58;;
22995;SDS011;11664;49.774;8.650;2022-07-15T06:56:40;3.00;;;2.90;;
22995;SDS011;11664;49.774;8.650;2022-07-15T06:59:06;3.40;;;3.30;;
22995;SDS011;11664;49.774;8.650;2022-07-15T07:01:32;4.38;;;4.18;;
22995;SDS011;11664;49.774;8.650;2022-07-15T07:03:58;5.10;;;3.67;;
22995;SDS011;11664;49.774;8.650;2022-07-15T07:06:24;3.33;;;3.22;;
22995;SDS011;11664;49.774;8.650;2022-07-15T07:08:51;3.33;;;3.22;;
22995;SDS011;11664;49.774;8.650;2022-07-15T07:11:17;4.18;;;3.95;;
22995;SDS011;11664;49.774;8.650;2022-07-15T07:13:43;3.92;;;3.72;;
22995;SDS011;11664;49.774;8.650;2022-07-15T07:16:09;4.32;;;4.13;;
22995;SDS011;11664;49.774;8.650;2022-07-15T07:18:35;3.35;;;3.25;;
22995;SDS011;11664;49.774;8.650;2022-07-15T07:21:02;3.08;;;2.97;;
22995;SDS011;11664;49.774;8.650;2022-07-15T07:23:28;3.10;;;2.90;;
22995;SDS011;11664;49.774;8.650;2022-07-15T07:25:55;2.97;;;2.88;;
22995;SDS011;11664;49.774;8.650;2022-07-15T07:28:21;3.53;;;3.33;;
22995;SDS011;11664;49.774;8.650;2022-07-15T07:30:47;3.30;;;3.20;;
22995;SDS011;11664;49.774;8.650;2022-07-15T07:33:15;2.88;;;2.78;;
22995;SDS011;11664;49.774;8.650;2022-07-15T07:35:41;2.63;;;2.53;;
22995;SDS011;11664;49.774;8.650;2022-07-15T07:38:08;3.20;;;3.08;;
22995;SDS011;11664;49.774;8.650;2022-07-15T07:40:34;3.15;;;3.05;;
22995;SDS011;11664;49.774;8.650;2022-07-15T07:43:00;2.80;;;2.70;;
22995;SDS011;11664;49.774;8.650;2022-07-15T07:45:26;3.35;;;3.15;;
22995;SDS011;11664;49.774;8.650;2022-07-15T07:47:53;3.13;;;3.00;;
22995;SDS011;11664;49.774;8.650;2022-07-15T07:50:20;3.28;;;3.08;;
22995;SDS011;11664;49.774;8.650;2022-07-15T07:52:46;2.97;;;2.88;;
22995;SDS011;11664;49.774;8.650;2022-07-15T07:55:12;2.47;;;2.38;;
22995;SDS011;11664;49.774;8.650;2022-07-15T07:57:46;2.90;;;2.80;;
22995;SDS011;11664;49.774;8.650;2022-07-15T08:00:12;2.92;;;2.83;;
22995;SDS011;11664;49.774;8.650;2022-07-15T08:02:38;2.42;;;2.33;;
22995;SDS011;11664;49.774;8.650;2022-07-15T08:05:05;2.88;;;2.78;;
22995;SDS011;11664;49.774;8.650;2022-07-15T08:07:31;2.72;;;2.63;;
22995;SDS011;11664;49.774;8.650;2022-07-15T08:09:57;3.33;;;3.22;;
22995;SDS011;11664;49.774;8.650;2022-07-15T08:12:23;3.80;;;3.53;;
22995;SDS011;11664;49.774;8.650;2022-07-15T08:14:49;4.00;;;3.30;;
22995;SDS011;11664;49.774;8.650;2022-07-15T08:17:16;2.90;;;2.80;;
22995;SDS011;11664;49.774;8.650;2022-07-15T08:19:42;9.90;;;3.50;;
22995;SDS011;11664;49.774;8.650;2022-07-15T08:22:08;2.65;;;2.45;;
22995;SDS011;11664;49.774;8.650;2022-07-15T08:24:34;2.80;;;2.70;;
22995;SDS011;11664;49.774;8.650;2022-07-15T08:27:00;2.70;;;2.50;;
22995;SDS011;11664;49.774;8.650;2022-07-15T08:29:27;3.03;;;2.92;;
22995;SDS011;11664;49.774;8.650;2022-07-15T08:31:53;2.90;;;2.70;;
22995;SDS011;11664;49.774;8.650;2022-07-15T08:34:19;3.38;;;3.28;;
22995;SDS011;11664;49.774;8.650;2022-07-15T08:36:45;3.15;;;3.05;;
22995;SDS011;11664;49.774;8.650;2022-07-15T08:39:11;3.03;;;2.92;;
22995;SDS011;11664;49.774;8.650;2022-07-15T08:41:37;2.63;;;2.53;;
22995;SDS011;11664;49.774;8.650;2022-07-15T08:44:04;3.17;;;3.08;;
22995;SDS011;11664;49.774;8.650;2022-07-15T08:46:30;5.57;;;5.07;;
22995;SDS011;11664;49.774;8.650;2022-07-15T08:48:58;4.47;;;4.28;;
22995;SDS011;11664;49.774;8.650;2022-07-15T08:51:27;5.57;;;5.15;;
22995;SDS011;11664;49.774;8.650;2022-07-15T08:53:53;4.35;;;4.15;;
22995;SDS011;11664;49.774;8.650;2022-07-15T08:56:20;4.72;;;4.45;;
22995;SDS011;11664;49.774;8.650;2022-07-15T08:58:47;5.45;;;5.22;;
22995;SDS011;11664;49.774;8.650;2022-07-15T09:01:13;9.02;;;4.90;;
22995;SDS011;11664;49.774;8.650;2022-07-15T09:03:39;6.93;;;6.53;;
22995;SDS011;11664;49.774;8.650;2022-07-15T09:06:05;6.50;;;6.10;;
22995;SDS011;11664;49.774;8.650;2022-07-15T09:08:31;7.28;;;6.88;;
22995;SDS011;11664;49.774;8.650;2022-07-15T09:10:59;5.10;;;4.90;;
22995;SDS011;11664;49.774;8.650;2022-07-15T09:16:11;5.47;;;5.22;;
22995;SDS011;11664;49.774;8.650;2022-07-15T09:18:44;3.78;;;3.67;;
22995;SDS011;11664;49.774;8.650;2022-07-15T09:21:14;3.15;;;3.05;;
22995;SDS011;11664;49.774;8.650;2022-07-15T09:23:40;6.45;;;4.95;;
22995;SDS011;11664;49.774;8.650;2022-07-15T09:28:51;3.90;;;3.80;;
22995;SDS011;11664;49.774;8.650;2022-07-15T09:31:30;4.72;;;4.43;;
22995;SDS011;11664;49.774;8.650;2022-07-15T09:34:15;5.53;;;5.25;;
22995;SDS011;11664;49.774;8.650;2022-07-15T09:36:43;14.00;;;6.45;;
22995;SDS011;11664;49.774;8.650;2022-07-15T09:39:10;6.90;;;6.60;;
22995;SDS011;11664;49.774;8.650;2022-07-15T09:46:50;13.15;;;10.77;;
22995;SDS011;11664;49.774;8.650;2022-07-15T09:49:16;4.35;;;4.05;;
22995;SDS011;11664;49.774;8.650;2022-07-15T09:51:43;10.88;;;10.20;;
22995;SDS011;11664;49.774;8.650;2022-07-15T09:54:10;16.63;;;15.68;;
22995;SDS011;11664;49.774;8.650;2022-07-15T09:56:37;9.50;;;9.02;;
22995;SDS011;11664;49.774;8.650;2022-07-15T09:59:03;10.43;;;9.93;;
22995;SDS011;11664;49.774;8.650;2022-07-15T10:01:30;7.80;;;7.43;;
22995;SDS011;11664;49.774;8.650;2022-07-15T10:03:56;5.20;;;4.90;;
22995;SDS011;11664;49.774;8.650;2022-07-15T10:06:22;5.47;;;5.18;;
22995;SDS011;11664;49.774;8.650;2022-07-15T10:08:51;4.70;;;4.50;;
22995;SDS011;11664;49.774;8.650;2022-07-15T10:11:17;3.92;;;3.70;;
22995;SDS011;11664;49.774;8.650;2022-07-15T10:13:48;4.25;;;3.95;;
22995;SDS011;11664;49.774;8.650;2022-07-15T10:21:20;4.10;;;3.95;;
22995;SDS011;11664;49.774;8.650;2022-07-15T10:24:04;4.95;;;4.68;;
22995;SDS011;11664;49.774;8.650;2022-07-15T10:26:35;4.50;;;4.30;;
22995;SDS011;11664;49.774;8.650;2022-07-15T10:29:05;2.55;;;2.45;;
22995;SDS011;11664;49.774;8.650;2022-07-15T10:31:33;2.97;;;2.88;;
22995;SDS011;11664;49.774;8.650;2022-07-15T10:39:06;10.68;;;2.67;;
22995;SDS011;11664;49.774;8.650;2022-07-15T10:41:52;13.05;;;2.90;;
22995;SDS011;11664;49.774;8.650;2022-07-15T10:44:19;3.05;;;2.95;;
22995;SDS011;11664;49.774;8.650;2022-07-15T10:46:45;3.05;;;2.92;;
22995;SDS011;11664;49.774;8.650;2022-07-15T10:54:07;4.55;;;4.35;;
22995;SDS011;11664;49.774;8.650;2022-07-15T10:56:35;3.87;;;3.67;;
22995;SDS011;11664;49.774;8.650;2022-07-15T11:01:35;4.50;;;4.30;;
22995;SDS011;11664;49.774;8.650;2022-07-15T11:09:43;4.20;;;4.00;;
22995;SDS011;11664;49.774;8.650;2022-07-15T11:14:55;5.60;;;5.30;;
22995;SDS011;11664;49.774;8.650;2022-07-15T11:22:21;3.30;;;3.15;;
22995;SDS011;11664;49.774;8.650;2022-07-15T11:24:47;5.47;;;5.28;;
22995;SDS011;11664;49.774;8.650;2022-07-15T11:27:13;7.53;;;7.22;;
22995;SDS011;11664;49.774;8.650;2022-07-15T11:29:39;3.92;;;3.72;;
22995;SDS011;11664;49.774;8.650;2022-07-15T11:32:06;4.88;;;4.68;;
22995;SDS011;11664;49.774;8.650;2022-07-15T11:34:36;4.32;;;4.13;;
22995;SDS011;11664;49.774;8.650;2022-07-15T11:37:04;7.18;;;4.40;;
22995;SDS011;11664;49.774;8.650;2022-07-15T11:39:30;4.85;;;4.45;;
22995;SDS011;11664;49.774;8.650;2022-07-15T11:41:55;4.10;;;3.80;;
22995;SDS011;11664;49.774;8.650;2022-07-15T11:44:46;3.97;;;3.78;;
22995;SDS011;11664;49.774;8.650;2022-07-15T11:47:13;6.25;;;5.90;;
22995;SDS011;11664;49.774;8.650;2022-07-15T11:49:39;5.32;;;4.85;;
22995;SDS011;11664;49.774;8.650;2022-07-15T11:52:05;4.95;;;4.70;;
22995;SDS011;11664;49.774;8.650;2022-07-15T11:54:32;5.68;;;5.22;;
22995;SDS011;11664;49.774;8.650;2022-07-15T11:57:01;3.90;;;3.70;;
22995;SDS011;11664;49.774;8.650;2022-07-15T11:59:29;10.43;;;4.20;;
22995;SDS011;11664;49.774;8.650;2022-07-15T12:02:05;3.80;;;3.60;;
22995;SDS011;11664;49.774;8.650;2022-07-15T12:04:36;3.58;;;3.45;;
22995;SDS011;11664;49.774;8.650;2022-07-15T12:07:03;4.53;;;4.32;;
22995;SDS011;11664;49.774;8.650;2022-07-15T12:09:39;6.65;;;6.35;;
22995;SDS011;11664;49.774;8.650;2022-07-15T12:12:06;5.20;;;4.93;;
22995;SDS011;11664;49.774;8.650;2022-07-15T12:14:31;7.05;;;5.18;;
22995;SDS011;11664;49.774;8.650;2022-07-15T12:16:57;3.83;;;3.63;;
22995;SDS011;11664;49.774;8.650;2022-07-15T12:19:24;3.10;;;2.90;;
22995;SDS011;11664;49.774;8.650;2022-07-15T12:21:52;4.90;;;4.50;;
22995;SDS011;11664;49.774;8.650;2022-07-15T12:24:20;5.15;;;4.95;;
22995;SDS011;11664;49.774;8.650;2022-07-15T12:29:16;4.38;;;4.15;;
22995;SDS011;11664;49.774;8.650;2022-07-15T12:31:50;3.88;;;3.67;;
22995;SDS011;11664;49.774;8.650;2022-07-15T12:37:20;4.82;;;4.53;;
22995;SDS011;11664;49.774;8.650;2022-07-15T12:42:23;4.80;;;4.53;;
22995;SDS011;11664;49.774;8.650;2022-07-15T12:47:34;3.40;;;3.20;;
22995;SDS011;11664;49.774;8.650;2022-07-15T12:50:00;4.63;;;4.32;;
22995;SDS011;11664;49.774;8.650;2022-07-15T12:52:30;3.20;;;2.97;;
22995;SDS011;11664;49.774;8.650;2022-07-15T12:54:57;5.25;;;4.95;;
22995;SDS011;11664;49.774;8.650;2022-07-15T12:57:31;7.30;;;7.00;;
22995;SDS011;11664;49.774;8.650;2022-07-15T13:05:24;7.57;;;7.00;;
22995;SDS011;11664;49.774;8.650;2022-07-15T13:07:50;5.95;;;5.63;;
22995;SDS011;11664;49.774;8.650;2022-07-15T13:10:15;4.22;;;3.97;;
22995;SDS011;11664;49.774;8.650;2022-07-15T13:12:41;4.47;;;4.28;;
22995;SDS011;11664;49.774;8.650;2022-07-15T13:15:08;4.10;;;3.90;;
22995;SDS011;11664;49.774;8.650;2022-07-15T13:17:34;5.47;;;5.10;;
22995;SDS011;11664;49.774;8.650;2022-07-15T13:20:03;8.10;;;7.70;;
22995;SDS011;11664;49.774;8.650;2022-07-15T13:22:30;6.10;;;5.75;;
22995;SDS011;11664;49.774;8.650;2022-07-15T13:24:57;3.83;;;3.63;;
22995;SDS011;11664;49.774;8.650;2022-07-15T13:27:23;5.43;;;5.03;;
22995;SDS011;11664;49.774;8.650;2022-07-15T13:29:49;8.60;;;8.18;;
22995;SDS011;11664;49.774;8.650;2022-07-15T13:32:15;12.82;;;12.23;;
22995;SDS011;11664;49.774;8.650;2022-07-15T13:34:40;13.43;;;12.82;;
22995;SDS011;11664;49.774;8.650;2022-07-15T13:37:06;8.40;;;8.00;;
22995;SDS011;11664;49.774;8.650;2022-07-15T13:39:32;3.95;;;3.75;;
22995;SDS011;11664;49.774;8.650;2022-07-15T13:41:57;4.70;;;4.40;;
22995;SDS011;11664;49.774;8.650;2022-07-15T13:44:23;6.05;;;5.75;;
22995;SDS011;11664;49.774;8.650;2022-07-15T13:46:48;3.78;;;3.58;;
22995;SDS011;11664;49.774;8.650;2022-07-15T13:49:14;3.97;;;3.78;;
22995;SDS011;11664;49.774;8.650;2022-07-15T13:51:39;3.65;;;3.50;;
22995;SDS011;11664;49.774;8.650;2022-07-15T13:54:06;3.08;;;2.88;;
22995;SDS011;11664;49.774;8.650;2022-07-15T13:56:32;4.25;;;4.05;;
22995;SDS011;11664;49.774;8.650;2022-07-15T13:58:58;3.70;;;3.40;;
22995;SDS011;11664;49.774;8.650;2022-07-15T14:01:26;5.25;;;4.53;;
22995;SDS011;11664;49.774;8.650;2022-07-15T14:03:53;5.70;;;5.30;;
22995;SDS011;11664;49.774;8.650;2022-07-15T14:06:19;4.07;;;3.88;;
22995;SDS011;11664;49.774;8.650;2022-07-15T14:08:45;3.40;;;3.30;;
22995;SDS011;11664;49.774;8.650;2022-07-15T14:11:11;3.35;;;3.20;;
22995;SDS011;11664;49.774;8.650;2022-07-15T14:13:37;2.75;;;2.65;;
22995;SDS011;11664;49.774;8.650;2022-07-15T14:16:03;3.03;;;2.92;;
22995;SDS011;11664;49.774;8.650;2022-07-15T14:18:29;2.50;;;2.40;;
22995;SDS011;11664;49.774;8.650;2022-07-15T14:21:13;2.97;;;2.78;;
22995;SDS011;11664;49.774;8.650;2022-07-15T14:23:40;3.80;;;3.53;;
22995;SDS011;11664;49.774;8.650;2022-07-15T14:26:06;4.70;;;3.38;;
22995;SDS011;11664;49.774;8.650;2022-07-15T14:28:31;3.03;;;2.92;;
22995;SDS011;11664;49.774;8.650;2022-07-15T14:30:57;2.90;;;2.65;;
22995;SDS011;11664;49.774;8.650;2022-07-15T14:33:23;2.92;;;2.72;;
22995;SDS011;11664;49.774;8.650;2022-07-15T14:35:48;3.25;;;3.15;;
22995;SDS011;11664;49.774;8.650;2022-07-15T14:38:15;3.30;;;3.10;;
22995;SDS011;11664;49.774;8.650;2022-07-15T14:40:41;4.43;;;3.42;;
22995;SDS011;11664;49.774;8.650;2022-07-15T14:43:06;2.95;;;2.80;;
22995;SDS011;11664;49.774;8.650;2022-07-15T14:45:32;2.90;;;2.80;;
22995;SDS011;11664;49.774;8.650;2022-07-15T14:47:57;3.05;;;2.90;;
22995;SDS011;11664;49.774;8.650;2022-07-15T14:50:23;3.38;;;3.15;;
22995;SDS011;11664;49.774;8.650;2022-07-15T14:52:48;3.58;;;3.40;;
22995;SDS011;11664;49.774;8.650;2022-07-15T14:55:14;3.03;;;2.88;;
22995;SDS011;11664;49.774;8.650;2022-07-15T14:57:40;3.03;;;2.92;;
22995;SDS011;11664;49.774;8.650;2022-07-15T15:00:05;3.03;;;2.90;;
22995;SDS011;11664;49.774;8.650;2022-07-15T15:02:31;2.85;;;2.75;;
22995;SDS011;11664;49.774;8.650;2022-07-15T15:04:57;3.40;;;3.20;;
22995;SDS011;11664;49.774;8.650;2022-07-15T15:07:23;2.67;;;2.58;;
22995;SDS011;11664;49.774;8.650;2022-07-15T15:09:48;3.17;;;3.08;;
22995;SDS011;11664;49.774;8.650;2022-07-15T15:12:14;3.10;;;2.97;;
22995;SDS011;11664;49.774;8.650;2022-07-15T15:14:40;2.40;;;2.30;;
22995;SDS011;11664;49.774;8.650;2022-07-15T15:17:05;3.15;;;2.95;;
22995;SDS011;11664;49.774;8.650;2022-07-15T15:19:31;3.97;;;3.67;;
22995;SDS011;11664;49.774;8.650;2022-07-15T15:21:57;4.38;;;4.07;;
22995;SDS011;11664;49.774;8.650;2022-07-15T15:24:23;3.97;;;3.78;;
22995;SDS011;11664;49.774;8.650;2022-07-15T15:26:49;3.35;;;3.05;;
22995;SDS011;11664;49.774;8.650;2022-07-15T15:29:15;2.60;;;2.50;;
22995;SDS011;11664;49.774;8.650;2022-07-15T15:31:41;2.83;;;2.58;;
22995;SDS011;11664;49.774;8.650;2022-07-15T15:34:07;3.10;;;2.90;;
22995;SDS011;11664;49.774;8.650;2022-07-15T15:36:33;4.10;;;3.70;;
22995;SDS011;11664;49.774;8.650;2022-07-15T15:38:59;3.42;;;3.22;;